Time;durP1;ratioP1;P1;durP2;ratioP2;P2;SDS_P1;SDS_P2;PMS_P1;PMS_P2;Temp;Humidity;BMP_temperature;BMP_pressure;BME280_temperature;BME280_humidity;BME280_pressure;Samples;Min_cycle;Max_cycle;Signal;HPM_P1;HPM_P2
2022/11/09 00:02:05;;;;;;;1.67;1.25;;;11.50;99.90;;;;;;5005125;28;20038;-75
2022/11/09 00:04:30;;;;;;;1.52;0.95;;;11.50;99.90;;;;;;5005156;28;20534;-74
2022/11/09 00:06:56;;;;;;;4.72;1.67;;;11.50;99.90;;;;;;5005453;28;20038;-74
2022/11/09 00:09:21;;;;;;;3.78;1.00;;;11.50;99.90;;;;;;5003980;28;20460;-74
2022/11/09 00:11:47;;;;;;;4.00;0.88;;;11.50;99.90;;;;;;5004905;28;20703;-74
2022/11/09 00:14:16;;;;;;;3.25;0.85;;;11.50;99.90;;;;;;5003626;28;20396;-74
2022/11/09 00:16:42;;;;;;;11.13;1.67;;;11.50;99.90;;;;;;5004306;28;20077;-76
2022/11/09 00:19:08;;;;;;;1.38;1.25;;;11.50;99.90;;;;;;5003709;28;20135;-75
2022/11/09 00:21:33;;;;;;;3.28;1.48;;;11.50;99.90;;;;;;5004944;28;20046;-74
2022/11/09 00:23:59;;;;;;;6.63;1.70;;;11.50;99.90;;;;;;5005172;28;20053;-75
2022/11/09 00:26:25;;;;;;;3.85;1.33;;;11.50;99.90;;;;;;4990537;28;20061;-74
2022/11/09 00:28:51;;;;;;;1.58;1.13;;;11.50;99.90;;;;;;4985630;28;20396;-74
2022/11/09 00:31:19;;;;;;;2.35;1.42;;;11.40;99.90;;;;;;4983998;28;20123;-75
2022/11/09 00:33:51;;;;;;;6.40;1.77;;;11.40;99.90;;;;;;4985295;28;20121;-75
2022/11/09 00:36:18;;;;;;;1.77;1.30;;;11.40;99.90;;;;;;4984667;28;20046;-73
2022/11/09 00:38:48;;;;;;;3.67;1.70;;;11.30;99.90;;;;;;4985342;28;20129;-74
2022/11/09 00:41:14;;;;;;;1.77;1.17;;;11.40;99.90;;;;;;4985288;28;20053;-76
2022/11/09 00:43:40;;;;;;;3.17;1.45;;;11.30;99.90;;;;;;5001857;28;20046;-74
2022/11/09 00:46:06;;;;;;;2.42;1.40;;;11.30;99.90;;;;;;5003544;28;20492;-76
2022/11/09 00:48:32;;;;;;;3.63;1.67;;;11.30;99.90;;;;;;5002895;28;20302;-74
2022/11/09 00:50:58;;;;;;;3.15;1.20;;;11.30;99.90;;;;;;5005030;28;20042;-75
2022/11/09 00:53:25;;;;;;;7.03;2.63;;;11.30;99.90;;;;;;5005094;28;20506;-74
2022/11/09 00:55:59;;;;;;;3.28;2.42;;;11.30;99.90;;;;;;5004204;28;20038;-74
2022/11/09 00:58:26;;;;;;;2.22;1.52;;;11.30;99.90;;;;;;4987016;28;20045;-74
2022/11/09 01:00:52;;;;;;;6.03;1.38;;;11.30;99.90;;;;;;5003543;28;20049;-74
2022/11/09 01:03:18;;;;;;;1.83;1.30;;;11.30;99.90;;;;;;5002785;28;20085;-75
2022/11/09 01:05:44;;;;;;;2.30;1.30;;;11.30;99.90;;;;;;5004577;28;20076;-74
2022/11/09 01:08:10;;;;;;;3.33;2.13;;;11.30;99.90;;;;;;5003970;28;20496;-74
2022/11/09 01:10:40;;;;;;;5.47;1.77;;;11.30;99.90;;;;;;5003023;28;20038;-76
2022/11/09 01:13:05;;;;;;;1.67;1.25;;;11.30;99.90;;;;;;5003394;28;20041;-73
2022/11/09 01:15:32;;;;;;;1.55;1.45;;;11.30;99.90;;;;;;5003555;28;20665;-74
2022/11/09 01:17:57;;;;;;;3.70;2.53;;;11.20;99.90;;;;;;5004318;28;20052;-73
2022/11/09 01:20:23;;;;;;;3.80;3.13;;;11.20;99.90;;;;;;5003857;28;20432;-75
2022/11/09 01:22:48;;;;;;;3.05;1.80;;;11.20;99.90;;;;;;5004455;28;20296;-73
2022/11/09 01:25:14;;;;;;;4.30;1.92;;;11.30;99.90;;;;;;5014703;28;20073;-73
2022/11/09 01:27:40;;;;;;;1.85;1.65;;;11.30;99.90;;;;;;4994089;28;20045;-73
2022/11/09 01:30:06;;;;;;;2.92;1.50;;;11.30;99.90;;;;;;5001629;28;20551;-73
2022/11/09 01:32:32;;;;;;;3.50;1.70;;;11.40;99.90;;;;;;5003796;28;20045;-73
2022/11/09 01:34:57;;;;;;;4.75;2.53;;;11.40;99.90;;;;;;5004444;28;20409;-73
2022/11/09 01:37:23;;;;;;;9.45;1.85;;;11.40;99.90;;;;;;5003465;28;20122;-73
2022/11/09 01:39:48;;;;;;;5.53;2.08;;;11.40;99.90;;;;;;5003997;28;20496;-73
2022/11/09 01:42:20;;;;;;;2.53;2.15;;;11.40;99.90;;;;;;5003987;28;20552;-73
2022/11/09 01:44:45;;;;;;;2.97;1.83;;;11.40;99.90;;;;;;5002954;28;20113;-74
2022/11/09 01:47:20;;;;;;;4.95;1.85;;;11.40;99.90;;;;;;5002762;28;20668;-73
2022/11/09 01:49:48;;;;;;;4.25;1.85;;;11.40;99.90;;;;;;5005022;28;20045;-74
2022/11/09 01:52:24;;;;;;;4.28;1.80;;;11.40;99.90;;;;;;5007728;28;20124;-74
2022/11/09 01:54:57;;;;;;;5.93;2.55;;;11.40;99.90;;;;;;5006423;28;20046;-74
2022/11/09 01:57:35;;;;;;;10.60;2.15;;;11.40;99.90;;;;;;5006293;28;20057;-73
2022/11/09 02:00:07;;;;;;;5.50;1.50;;;11.40;99.90;;;;;;5004924;28;20049;-74
2022/11/09 02:02:35;;;;;;;6.68;2.97;;;11.40;99.90;;;;;;5007232;28;20049;-74
2022/11/09 02:05:09;;;;;;;5.97;1.85;;;11.40;99.90;;;;;;5005956;28;20478;-74
2022/11/09 02:07:36;;;;;;;4.18;2.25;;;11.40;99.90;;;;;;5006513;28;20046;-73
2022/11/09 02:10:08;;;;;;;4.90;1.90;;;11.30;99.90;;;;;;5007214;28;20049;-74
2022/11/09 02:12:34;;;;;;;3.95;2.22;;;11.30;99.90;;;;;;5007259;28;20392;-76
2022/11/09 02:15:03;;;;;;;9.23;2.35;;;11.30;99.90;;;;;;5006409;28;20046;-74
2022/11/09 02:17:29;;;;;;;5.00;2.58;;;11.30;99.90;;;;;;5006695;28;20084;-77
2022/11/09 02:19:58;;;;;;;4.80;2.33;;;11.30;99.90;;;;;;5007697;28;20042;-73
2022/11/09 02:22:24;;;;;;;5.63;2.83;;;11.30;99.90;;;;;;5007506;28;20053;-74
2022/11/09 02:24:50;;;;;;;3.70;2.38;;;11.30;99.90;;;;;;5006598;28;20042;-74
2022/11/09 02:27:16;;;;;;;7.40;2.13;;;11.30;99.90;;;;;;4987441;28;20071;-74
2022/11/09 02:29:45;;;;;;;2.92;2.42;;;11.30;99.90;;;;;;4986738;28;20042;-74
2022/11/09 02:32:21;;;;;;;3.15;1.92;;;11.20;99.90;;;;;;4987360;28;20038;-75
2022/11/09 02:34:47;;;;;;;10.90;3.67;;;11.20;99.90;;;;;;4987533;28;20080;-74
2022/11/09 02:37:23;;;;;;;7.45;2.97;;;11.20;99.90;;;;;;4987510;28;20073;-74
2022/11/09 02:39:49;;;;;;;3.17;2.28;;;11.20;99.90;;;;;;4987374;28;20057;-74
2022/11/09 02:42:16;;;;;;;4.55;2.45;;;11.20;99.90;;;;;;4997282;28;20038;-74
2022/11/09 02:44:50;;;;;;;4.40;2.30;;;11.20;99.90;;;;;;5006118;28;20038;-73
2022/11/09 02:47:16;;;;;;;4.10;2.38;;;11.20;99.90;;;;;;5006225;28;20052;-74
2022/11/09 02:49:41;;;;;;;4.05;2.75;;;11.20;99.90;;;;;;5005665;28;20265;-74
2022/11/09 02:52:07;;;;;;;3.45;2.17;;;11.20;99.90;;;;;;5007120;28;20069;-74
2022/11/09 02:54:32;;;;;;;4.15;2.03;;;11.20;99.90;;;;;;5006750;28;20045;-75
2022/11/09 02:56:58;;;;;;;2.20;1.80;;;11.20;99.90;;;;;;5006175;28;20346;-74
2022/11/09 02:59:24;;;;;;;4.25;1.98;;;11.20;99.90;;;;;;5004778;28;20053;-73
2022/11/09 03:01:49;;;;;;;5.22;2.95;;;11.20;99.90;;;;;;5006269;28;20042;-75
2022/11/09 03:04:15;;;;;;;7.93;2.53;;;11.20;99.90;;;;;;5006900;28;20057;-74
2022/11/09 03:06:41;;;;;;;5.63;2.92;;;11.20;99.90;;;;;;5006405;28;20107;-74
2022/11/09 03:09:08;;;;;;;4.93;2.10;;;11.20;99.90;;;;;;5005579;28;20562;-76
2022/11/09 03:11:35;;;;;;;7.43;2.95;;;11.20;99.90;;;;;;5005901;28;20045;-75
2022/11/09 03:14:01;;;;;;;9.15;2.35;;;11.30;99.90;;;;;;5004676;28;20045;-73
2022/11/09 03:16:27;;;;;;;3.83;1.73;;;11.30;99.90;;;;;;5006810;28;20084;-74
2022/11/09 03:18:53;;;;;;;2.90;1.80;;;11.20;99.90;;;;;;5003904;28;20052;-73
2022/11/09 03:21:20;;;;;;;2.92;1.58;;;11.30;99.90;;;;;;5006075;28;20467;-73
2022/11/09 03:23:46;;;;;;;5.43;2.60;;;11.30;99.90;;;;;;5005888;28;20046;-74
2022/11/09 03:26:12;;;;;;;3.55;2.35;;;11.20;99.90;;;;;;4994792;28;20630;-74
2022/11/09 03:28:38;;;;;;;10.95;2.10;;;11.20;99.90;;;;;;4987040;28;20081;-73
2022/11/09 03:31:04;;;;;;;3.83;1.80;;;11.20;99.90;;;;;;4984710;28;20038;-74
2022/11/09 03:33:29;;;;;;;6.07;2.03;;;11.20;99.90;;;;;;4986223;28;20082;-74
2022/11/09 03:35:55;;;;;;;15.85;2.40;;;11.20;99.90;;;;;;4987096;28;20042;-73
2022/11/09 03:38:20;;;;;;;3.53;1.80;;;11.20;99.90;;;;;;4985103;28;20054;-74
2022/11/09 03:40:46;;;;;;;4.85;2.05;;;11.20;99.90;;;;;;4986252;28;20485;-73
2022/11/09 03:43:11;;;;;;;5.88;2.58;;;11.20;99.90;;;;;;5003166;28;20046;-73
2022/11/09 03:45:37;;;;;;;5.97;2.20;;;11.20;99.90;;;;;;5004731;28;20049;-73
2022/11/09 03:48:03;;;;;;;3.53;1.50;;;11.20;99.90;;;;;;5004236;28;20058;-73
2022/11/09 03:50:31;;;;;;;5.20;2.15;;;11.20;99.90;;;;;;5006292;28;20042;-76
2022/11/09 03:52:58;;;;;;;7.03;2.17;;;11.20;99.90;;;;;;5006353;28;20100;-74
2022/11/09 03:55:24;;;;;;;3.22;1.90;;;11.20;99.90;;;;;;5005415;28;20138;-76
2022/11/09 03:57:49;;;;;;;11.98;3.13;;;11.20;99.90;;;;;;5005770;28;20176;-76
2022/11/09 04:00:18;;;;;;;4.53;2.55;;;11.20;99.90;;;;;;5004840;28;20034;-74
2022/11/09 04:02:44;;;;;;;3.35;1.85;;;11.20;99.90;;;;;;5005960;28;20050;-75
2022/11/09 04:05:10;;;;;;;5.00;2.45;;;11.20;99.90;;;;;;5004559;28;20057;-75
2022/11/09 04:07:36;;;;;;;3.63;1.85;;;11.20;99.90;;;;;;5005075;28;20049;-75
2022/11/09 04:10:03;;;;;;;9.52;2.30;;;11.20;99.90;;;;;;5004998;28;20054;-74
2022/11/09 04:12:28;;;;;;;19.08;3.40;;;11.20;99.90;;;;;;5004754;28;20042;-77
2022/11/09 04:14:54;;;;;;;9.52;2.67;;;11.30;99.90;;;;;;5003925;28;20045;-75
2022/11/09 04:17:19;;;;;;;6.65;2.60;;;11.30;99.90;;;;;;5004760;28;20135;-75
2022/11/09 04:19:45;;;;;;;4.22;2.25;;;11.30;99.90;;;;;;5002901;28;20054;-75
2022/11/09 04:22:11;;;;;;;4.38;2.28;;;11.30;99.90;;;;;;5003290;28;20049;-74
2022/11/09 04:24:36;;;;;;;6.43;2.92;;;11.30;99.90;;;;;;5005686;28;20068;-75
2022/11/09 04:27:02;;;;;;;7.15;2.22;;;11.40;99.90;;;;;;4986676;28;20531;-74
2022/11/09 04:29:28;;;;;;;11.27;3.58;;;11.30;99.90;;;;;;4983681;28;20042;-74
2022/11/09 04:31:54;;;;;;;4.03;1.98;;;11.40;99.90;;;;;;4984605;28;20254;-76
2022/11/09 04:34:19;;;;;;;7.82;3.08;;;11.30;99.90;;;;;;4984771;28;20053;-74
2022/11/09 04:36:45;;;;;;;6.53;2.92;;;11.40;99.90;;;;;;4985640;28;20038;-75
2022/11/09 04:39:10;;;;;;;9.55;3.00;;;11.40;99.90;;;;;;4985380;28;20050;-76
2022/11/09 04:41:36;;;;;;;6.05;2.30;;;11.30;99.90;;;;;;4993286;28;20401;-75
2022/11/09 04:44:02;;;;;;;7.18;1.67;;;11.30;99.90;;;;;;5002711;28;20065;-74
2022/11/09 04:46:28;;;;;;;8.13;3.13;;;11.30;99.90;;;;;;5005280;28;20042;-74
2022/11/09 04:48:53;;;;;;;6.63;4.05;;;11.30;99.90;;;;;;5002566;28;20517;-74
2022/11/09 04:51:19;;;;;;;7.88;2.08;;;11.30;99.90;;;;;;5004558;28;20352;-74
2022/11/09 04:53:44;;;;;;;1.83;1.42;;;11.30;99.90;;;;;;5003358;28;20084;-74
2022/11/09 04:56:11;;;;;;;5.30;2.38;;;11.30;99.90;;;;;;5004016;28;20033;-74
2022/11/09 04:58:37;;;;;;;4.43;1.80;;;11.30;99.90;;;;;;5002996;28;20058;-74
2022/11/09 05:01:06;;;;;;;4.82;2.15;;;11.30;99.90;;;;;;5002414;28;20140;-74
2022/11/09 05:03:32;;;;;;;3.90;2.17;;;11.30;99.90;;;;;;5004297;28;20056;-74
2022/11/09 05:05:58;;;;;;;6.03;2.58;;;11.30;99.90;;;;;;5004211;28;20511;-73
2022/11/09 05:08:23;;;;;;;4.90;3.97;;;11.30;99.90;;;;;;5003002;28;20137;-73
2022/11/09 05:10:49;;;;;;;5.22;1.95;;;11.30;99.90;;;;;;5003946;28;20296;-74
2022/11/09 05:13:15;;;;;;;3.88;1.88;;;11.30;99.90;;;;;;5003707;28;20037;-73
2022/11/09 05:15:41;;;;;;;9.85;2.10;;;11.30;99.90;;;;;;5003388;28;20107;-76
2022/11/09 05:18:07;;;;;;;4.03;2.10;;;11.30;99.90;;;;;;5003851;28;20037;-73
2022/11/09 05:20:34;;;;;;;4.50;2.60;;;11.30;99.90;;;;;;5019094;28;20049;-73
2022/11/09 05:25:45;;;;;;;8.68;1.92;;;11.30;99.90;;;;;;4995978;28;20060;-74
2022/11/09 05:28:10;;;;;;;2.25;1.40;;;11.20;99.90;;;;;;4984179;28;20042;-74
2022/11/09 05:30:36;;;;;;;1.95;1.67;;;11.20;99.90;;;;;;4983213;28;20104;-75
2022/11/09 05:33:02;;;;;;;5.18;2.17;;;11.20;99.90;;;;;;4984408;28;20035;-74
2022/11/09 05:35:28;;;;;;;4.45;1.67;;;11.20;99.90;;;;;;4983761;28;20043;-74
2022/11/09 05:37:53;;;;;;;5.13;2.20;;;11.10;99.90;;;;;;4983104;28;20113;-74
2022/11/09 05:40:19;;;;;;;8.57;2.08;;;11.20;99.90;;;;;;4993061;28;20077;-74
2022/11/09 05:42:46;;;;;;;9.07;3.00;;;11.10;99.90;;;;;;5002519;28;20133;-75
2022/11/09 05:45:16;;;;;;;9.75;2.60;;;11.10;99.90;;;;;;5002731;28;20222;-74
2022/11/09 05:47:43;;;;;;;2.33;1.75;;;11.10;99.90;;;;;;5003859;28;20144;-73
2022/11/09 05:50:15;;;;;;;4.22;2.42;;;11.10;99.90;;;;;;5003055;28;20425;-74
2022/11/09 05:52:41;;;;;;;5.47;2.55;;;11.00;99.90;;;;;;4992104;28;20464;-75
2022/11/09 05:55:07;;;;;;;3.20;2.05;;;11.10;99.90;;;;;;4990727;28;20065;-75
2022/11/09 05:57:32;;;;;;;7.30;2.45;;;11.00;99.90;;;;;;5002123;28;20084;-75
2022/11/09 05:59:58;;;;;;;5.40;2.83;;;11.00;99.90;;;;;;5003059;28;20077;-74
2022/11/09 06:02:23;;;;;;;4.32;2.55;;;11.00;99.90;;;;;;5003717;28;20038;-75
2022/11/09 06:04:49;;;;;;;9.88;2.20;;;11.00;99.90;;;;;;4991531;28;20061;-75
2022/11/09 06:07:15;;;;;;;5.65;2.92;;;11.00;99.90;;;;;;4987949;28;20045;-74
2022/11/09 06:09:40;;;;;;;15.80;3.30;;;11.00;99.90;;;;;;4994471;28;20073;-74
2022/11/09 06:12:06;;;;;;;2.92;2.13;;;10.90;99.90;;;;;;4996682;28;20077;-75
2022/11/09 06:14:32;;;;;;;8.07;2.13;;;11.00;99.90;;;;;;4985279;28;20037;-74
2022/11/09 06:16:57;;;;;;;7.47;2.88;;;11.00;99.90;;;;;;4988815;28;20038;-74
2022/11/09 06:19:23;;;;;;;4.32;2.28;;;10.90;99.90;;;;;;4997582;28;20050;-74
2022/11/09 06:21:48;;;;;;;2.00;1.60;;;11.00;99.90;;;;;;5002976;28;20073;-73
2022/11/09 06:24:14;;;;;;;13.10;2.65;;;11.00;99.90;;;;;;5001828;28;20037;-74
2022/11/09 06:26:39;;;;;;;3.35;1.40;;;11.00;99.90;;;;;;4993299;28;20054;-74
2022/11/09 06:29:05;;;;;;;6.97;2.72;;;10.90;99.90;;;;;;4990564;28;20468;-75
2022/11/09 06:31:31;;;;;;;5.32;2.38;;;10.90;99.90;;;;;;4996312;28;20042;-74
2022/11/09 06:33:56;;;;;;;4.88;1.90;;;10.90;99.90;;;;;;4990029;28;20404;-74
2022/11/09 06:36:22;;;;;;;2.53;1.50;;;10.90;99.90;;;;;;4994498;28;20046;-74
2022/11/09 06:38:50;;;;;;;6.70;1.73;;;10.90;99.90;;;;;;5001999;28;20045;-74
2022/11/09 06:41:16;;;;;;;2.78;2.05;;;10.90;99.90;;;;;;5007441;28;20038;-76
2022/11/09 06:43:42;;;;;;;5.45;2.95;;;10.90;99.90;;;;;;5006567;28;20455;-76
2022/11/09 06:46:09;;;;;;;5.75;2.13;;;10.80;99.90;;;;;;5005576;28;20100;-76
2022/11/09 06:48:36;;;;;;;6.53;3.08;;;10.90;99.90;;;;;;5000719;28;20401;-75
2022/11/09 06:51:03;;;;;;;1.88;1.70;;;10.80;99.90;;;;;;5002049;28;20034;-75
2022/11/09 06:53:30;;;;;;;2.72;1.83;;;10.80;99.90;;;;;;5006962;28;20385;-77
2022/11/09 06:56:00;;;;;;;2.42;2.20;;;10.80;99.90;;;;;;5001641;28;20045;-75
2022/11/09 06:58:26;;;;;;;4.75;1.83;;;10.80;99.90;;;;;;5003976;28;20056;-74
2022/11/09 07:00:52;;;;;;;4.65;1.58;;;10.80;99.90;;;;;;4997701;28;20054;-74
2022/11/09 07:03:19;;;;;;;6.53;2.50;;;10.80;99.90;;;;;;5003032;28;20057;-74
2022/11/09 07:05:46;;;;;;;4.53;1.95;;;10.70;99.90;;;;;;4992363;28;20505;-76
2022/11/09 07:08:12;;;;;;;3.03;2.72;;;10.70;99.90;;;;;;4993721;28;20037;-74
2022/11/09 07:10:37;;;;;;;3.40;1.65;;;10.70;99.90;;;;;;4999313;28;20034;-75
2022/11/09 07:13:04;;;;;;;2.92;1.90;;;10.70;99.90;;;;;;4986789;28;20034;-74
2022/11/09 07:15:30;;;;;;;4.68;1.67;;;10.70;99.90;;;;;;4995759;28;20057;-75
2022/11/09 07:17:58;;;;;;;7.25;3.10;;;10.70;99.90;;;;;;5006758;28;20041;-75
2022/11/09 07:20:24;;;;;;;4.07;2.40;;;10.60;99.90;;;;;;5004550;28;20536;-76
2022/11/09 07:22:49;;;;;;;2.90;1.88;;;10.70;99.90;;;;;;5004514;28;20089;-76
2022/11/09 07:25:15;;;;;;;4.93;1.98;;;10.70;99.90;;;;;;5005634;28;20121;-77
2022/11/09 07:27:41;;;;;;;4.22;2.03;;;10.60;99.90;;;;;;5005886;28;20057;-76
2022/11/09 07:30:07;;;;;;;4.80;1.92;;;10.70;99.90;;;;;;5003912;28;20042;-76
2022/11/09 07:32:35;;;;;;;4.20;1.58;;;10.70;99.90;;;;;;5005510;28;20042;-74
2022/11/09 07:35:00;;;;;;;8.68;3.00;;;10.70;99.90;;;;;;5004037;28;20061;-74
2022/11/09 07:37:26;;;;;;;10.27;2.00;;;10.70;99.90;;;;;;5005764;28;20041;-76
2022/11/09 07:39:51;;;;;;;6.03;2.08;;;10.70;99.90;;;;;;5005345;28;20046;-75
2022/11/09 07:42:17;;;;;;;8.70;1.80;;;10.80;99.90;;;;;;5003597;28;20081;-75
2022/11/09 07:44:42;;;;;;;8.98;2.63;;;10.80;99.90;;;;;;5004702;28;20064;-75
2022/11/09 07:47:08;;;;;;;5.53;2.22;;;10.80;99.90;;;;;;5002517;28;20049;-75
2022/11/09 07:49:34;;;;;;;2.92;2.42;;;10.80;99.90;;;;;;5005207;28;20125;-74
2022/11/09 07:52:00;;;;;;;6.03;2.95;;;10.90;99.90;;;;;;5004941;28;20038;-75
2022/11/09 07:54:25;;;;;;;3.30;1.90;;;10.80;99.90;;;;;;5003981;28;20084;-75
2022/11/09 07:56:51;;;;;;;4.50;2.63;;;10.90;99.90;;;;;;5005437;28;20050;-75
2022/11/09 07:59:16;;;;;;;6.57;2.58;;;10.90;99.90;;;;;;5003917;28;20158;-75
2022/11/09 08:01:42;;;;;;;8.38;3.25;;;11.00;99.90;;;;;;5005170;28;20037;-74
2022/11/09 08:04:08;;;;;;;5.95;2.08;;;11.00;99.90;;;;;;5003530;28;20062;-77
2022/11/09 08:06:33;;;;;;;6.97;1.83;;;11.00;99.90;;;;;;5003974;28;20496;-74
2022/11/09 08:08:59;;;;;;;2.95;1.95;;;11.10;99.90;;;;;;5004764;28;20096;-75
2022/11/09 08:11:25;;;;;;;4.07;2.35;;;11.10;99.90;;;;;;5004089;28;20137;-76
2022/11/09 08:13:51;;;;;;;5.47;2.28;;;11.20;99.90;;;;;;5003988;28;20508;-74
2022/11/09 08:16:16;;;;;;;7.63;2.58;;;11.20;99.90;;;;;;5004481;28;20045;-75
2022/11/09 08:18:42;;;;;;;4.65;2.55;;;11.30;99.90;;;;;;5003684;28;20045;-75
2022/11/09 08:21:07;;;;;;;7.25;2.13;;;11.30;99.90;;;;;;5004728;28;20052;-74
2022/11/09 08:23:33;;;;;;;8.20;2.15;;;11.30;99.90;;;;;;5003359;28;20080;-74
2022/11/09 08:26:03;;;;;;;8.07;2.63;;;11.30;99.90;;;;;;4994520;28;20042;-77
2022/11/09 08:28:28;;;;;;;4.47;1.75;;;11.40;99.90;;;;;;4984376;28;20039;-78
2022/11/09 08:30:58;;;;;;;4.15;2.30;;;11.40;99.90;;;;;;4985197;28;20084;-75
2022/11/09 08:33:27;;;;;;;3.20;2.05;;;11.40;99.90;;;;;;4983741;28;20489;-75
2022/11/09 08:35:52;;;;;;;5.20;3.10;;;11.40;99.90;;;;;;4983985;28;20050;-75
2022/11/09 08:38:18;;;;;;;3.92;1.80;;;11.40;99.90;;;;;;4983365;28;20139;-76
2022/11/09 08:40:43;;;;;;;4.28;2.75;;;11.40;99.90;;;;;;4983623;28;20053;-74
2022/11/09 08:43:10;;;;;;;6.50;2.20;;;11.40;99.90;;;;;;4982599;28;20100;-75
2022/11/09 08:45:38;;;;;;;10.23;1.90;;;11.40;99.90;;;;;;4984501;28;20042;-75
2022/11/09 08:48:05;;;;;;;7.35;2.83;;;11.50;99.90;;;;;;4984177;28;20493;-75
2022/11/09 08:50:34;;;;;;;8.95;2.78;;;11.50;99.90;;;;;;4984896;28;20335;-74
2022/11/09 08:53:01;;;;;;;3.75;1.70;;;11.50;99.90;;;;;;4984386;28;20051;-75
2022/11/09 08:55:26;;;;;;;4.47;1.95;;;11.50;99.90;;;;;;4984711;28;20125;-77
2022/11/09 08:57:54;;;;;;;8.48;2.67;;;11.60;99.90;;;;;;4982436;28;20185;-74
2022/11/09 09:00:20;;;;;;;4.70;2.80;;;11.50;99.90;;;;;;4983159;28;20133;-74
2022/11/09 09:02:45;;;;;;;4.05;2.38;;;11.60;99.90;;;;;;4982789;28;20121;-73
2022/11/09 09:05:11;;;;;;;7.03;2.22;;;11.60;99.90;;;;;;4984186;28;20046;-78
2022/11/09 09:07:36;;;;;;;5.18;2.08;;;11.60;99.90;;;;;;4984621;28;20062;-74
2022/11/09 09:10:03;;;;;;;7.40;2.65;;;11.70;99.90;;;;;;4983637;28;20050;-74
2022/11/09 09:12:29;;;;;;;5.28;2.80;;;11.70;99.90;;;;;;4984221;28;20437;-77
2022/11/09 09:14:55;;;;;;;8.32;2.63;;;11.70;99.90;;;;;;4983675;28;20046;-74
2022/11/09 09:17:20;;;;;;;6.88;3.05;;;11.80;99.90;;;;;;4983958;28;20497;-75
2022/11/09 09:19:46;;;;;;;7.32;2.05;;;11.90;99.90;;;;;;4984045;28;20048;-74
2022/11/09 09:22:11;;;;;;;4.95;2.50;;;11.90;99.90;;;;;;4982720;28;20057;-74
2022/11/09 09:24:37;;;;;;;2.65;2.05;;;12.00;99.90;;;;;;4984122;28;20058;-74
2022/11/09 09:27:02;;;;;;;10.27;2.42;;;12.00;99.90;;;;;;4984351;28;20029;-74
2022/11/09 09:29:28;;;;;;;5.78;2.13;;;12.00;99.90;;;;;;5002906;28;20057;-74
2022/11/09 09:31:53;;;;;;;4.88;2.13;;;12.10;99.90;;;;;;5002774;28;20038;-75
2022/11/09 09:34:19;;;;;;;3.95;1.77;;;12.10;99.90;;;;;;5003218;28;20052;-76
2022/11/09 09:36:44;;;;;;;4.32;2.33;;;12.10;99.90;;;;;;5003764;28;20040;-74
2022/11/09 09:39:11;;;;;;;2.15;1.98;;;12.20;99.90;;;;;;5002866;28;20042;-76
2022/11/09 09:41:36;;;;;;;5.00;2.47;;;12.20;99.90;;;;;;5003719;28;20053;-74
2022/11/09 09:44:16;;;;;;;5.18;2.67;;;12.30;99.90;;;;;;5002208;28;20054;-73
2022/11/09 09:46:54;;;;;;;12.23;2.67;;;12.30;99.90;;;;;;5003594;28;20042;-73
2022/11/09 09:49:29;;;;;;;6.47;2.80;;;12.30;99.90;;;;;;5002915;28;20411;-74
2022/11/09 09:52:13;;;;;;;4.05;1.70;;;12.40;99.90;;;;;;5002677;28;20054;-74
2022/11/09 09:54:43;;;;;;;10.05;2.95;;;12.40;99.90;;;;;;5002146;28;20135;-74
2022/11/09 09:57:19;;;;;;;7.18;2.72;;;12.50;99.90;;;;;;5003026;28;20042;-76
2022/11/09 09:59:56;;;;;;;9.93;3.10;;;12.50;99.90;;;;;;5002442;28;20168;-76
2022/11/09 10:02:30;;;;;;;6.40;2.67;;;12.50;99.90;;;;;;5002665;28;20046;-74
2022/11/09 10:04:59;;;;;;;8.90;2.45;;;12.50;99.90;;;;;;5003601;28;20512;-75
2022/11/09 10:07:39;;;;;;;3.65;2.40;;;12.60;99.90;;;;;;5002166;28;20045;-75
2022/11/09 10:10:26;;;;;;;3.67;2.75;;;12.60;99.90;;;;;;5003024;28;20492;-74
2022/11/09 10:13:31;;;;;;;7.05;3.45;;;12.60;99.90;;;;;;5006261;28;20081;-75
2022/11/09 10:16:19;;;;;;;8.25;3.10;;;12.60;99.90;;;;;;5007492;28;20072;-74
2022/11/09 10:19:02;;;;;;;9.98;3.30;;;12.60;99.90;;;;;;5005278;28;20042;-75
2022/11/09 10:21:30;;;;;;;;;;;12.60;99.90;;;;;;5006811;28;20060;-76
2022/11/09 10:24:34;;;;;;;5.53;2.15;;;12.60;99.90;;;;;;5007132;28;19928;-75
2022/11/09 10:27:06;;;;;;;4.30;2.97;;;12.60;99.90;;;;;;4988362;28;20456;-74
2022/11/09 10:29:45;;;;;;;6.03;3.33;;;12.60;99.90;;;;;;4986337;28;20100;-76
2022/11/09 10:32:17;;;;;;;11.13;3.40;;;12.60;99.90;;;;;;4986844;28;20551;-74
2022/11/09 10:35:11;;;;;;;4.83;3.47;;;12.60;99.90;;;;;;4986900;28;20133;-75
2022/11/09 10:37:40;;;;;;;7.70;3.13;;;12.60;99.90;;;;;;4987155;28;20050;-74
2022/11/09 10:40:29;;;;;;;6.15;2.67;;;12.60;99.90;;;;;;4986831;28;20127;-74
2022/11/09 10:42:59;;;;;;;4.80;3.20;;;12.60;99.90;;;;;;4986417;28;20065;-74
2022/11/09 10:45:33;;;;;;;7.45;3.38;;;12.50;99.90;;;;;;4986035;28;20051;-74
2022/11/09 10:47:59;;;;;;;6.65;3.20;;;12.60;99.90;;;;;;4986724;28;20520;-78
2022/11/09 10:50:39;;;;;;;3.88;3.15;;;12.60;99.90;;;;;;4986038;28;20089;-74
2022/11/09 10:53:25;;;;;;;8.30;3.38;;;12.60;99.90;;;;;;4986638;28;20389;-74
2022/11/09 10:55:57;;;;;;;5.72;3.35;;;12.60;99.90;;;;;;4986592;28;20485;-75
2022/11/09 10:58:29;;;;;;;10.00;4.20;;;12.60;99.90;;;;;;4985611;28;20053;-74
2022/11/09 11:01:00;;;;;;;5.77;3.70;;;12.60;99.90;;;;;;4987241;28;20111;-74
2022/11/09 11:03:26;;;;;;;4.97;2.67;;;12.60;99.90;;;;;;4986962;28;20125;-75
2022/11/09 11:06:25;;;;;;;10.35;3.22;;;12.70;99.90;;;;;;4985309;28;20845;-75
2022/11/09 11:08:56;;;;;;;4.25;3.05;;;12.70;99.90;;;;;;4983763;28;20047;-74
2022/11/09 11:11:28;;;;;;;9.35;3.22;;;12.80;99.90;;;;;;4986014;28;20200;-75
2022/11/09 11:14:14;;;;;;;6.10;3.55;;;12.80;99.90;;;;;;4986443;28;20034;-75
2022/11/09 11:16:42;;;;;;;3.45;2.70;;;12.80;99.90;;;;;;4986614;28;20559;-74
2022/11/09 11:19:35;;;;;;;3.97;2.63;;;12.80;99.90;;;;;;4985966;28;20137;-73
2022/11/09 11:22:11;;;;;;;18.40;3.47;;;12.80;99.90;;;;;;4968209;28;20108;-74
2022/11/09 11:24:57;;;;;;;10.15;3.63;;;12.80;99.90;;;;;;4986251;28;20549;-74
2022/11/09 11:27:29;;;;;;;6.68;3.45;;;12.80;99.90;;;;;;4985498;28;20121;-77
2022/11/09 11:30:16;;;;;;;4.97;2.40;;;12.80;99.90;;;;;;4985909;28;20057;-76
2022/11/09 11:32:41;;;;;;;6.47;3.50;;;12.80;99.90;;;;;;4986199;28;20347;-74
2022/11/09 11:35:17;;;;;;;10.25;3.28;;;12.70;99.90;;;;;;4985960;28;20133;-74
2022/11/09 11:37:59;;;;;;;7.78;4.45;;;12.70;99.90;;;;;;4989851;28;20565;-75
2022/11/09 11:40:28;;;;;;;;;;;12.70;99.90;;;;;;5005049;28;20054;-73
2022/11/09 11:42:54;;;;;;;3.80;3.35;;;12.60;99.90;;;;;;5003219;28;19921;-74
2022/11/09 11:45:39;;;;;;;9.20;3.65;;;12.60;99.90;;;;;;5005526;28;20046;-75
2022/11/09 11:48:22;;;;;;;10.15;3.83;;;12.50;99.90;;;;;;4998877;28;20038;-73
2022/11/09 11:51:17;;;;;;;8.30;3.40;;;12.50;99.90;;;;;;5004520;28;20038;-74
2022/11/09 11:53:54;;;;;;;6.28;3.95;;;12.40;99.90;;;;;;5000611;28;20049;-73
2022/11/09 11:56:27;;;;;;;7.82;3.40;;;12.30;99.90;;;;;;5004829;28;20096;-76
2022/11/09 11:59:11;;;;;;;;;;;12.30;99.90;;;;;;5004415;28;20107;-74
2022/11/09 12:01:58;;;;;;;5.72;2.72;;;12.20;99.90;;;;;;5005933;28;20011;-74
2022/11/09 12:05:00;;;;;;;7.45;3.85;;;12.20;99.90;;;;;;5005781;28;20050;-74
2022/11/09 12:07:41;;;;;;;11.73;3.67;;;12.20;99.90;;;;;;4988170;28;20046;-76
2022/11/09 12:10:22;;;;;;;3.85;2.80;;;12.10;99.90;;;;;;5001376;28;20050;-73
2022/11/09 12:13:19;;;;;;;5.45;2.63;;;12.10;99.90;;;;;;5004502;28;20104;-73
2022/11/09 12:15:55;;;;;;;4.97;2.90;;;12.10;99.90;;;;;;4982632;28;20141;-74
2022/11/09 12:18:39;;;;;;;2.47;1.65;;;12.10;99.90;;;;;;5001266;28;20388;-75
2022/11/09 12:21:31;;;;;;;2.33;1.40;;;12.00;99.90;;;;;;4996729;28;20384;-74
2022/11/09 12:24:26;;;;;;;1.83;1.27;;;11.90;99.90;;;;;;4999904;28;20046;-74
2022/11/09 12:27:15;;;;;;;2.90;1.00;;;11.80;99.90;;;;;;5008543;28;20053;-74
2022/11/09 12:30:21;;;;;;;1.02;0.82;;;11.70;99.90;;;;;;4961191;28;20133;-75
2022/11/09 12:32:55;;;;;;;0.88;0.85;;;11.60;99.90;;;;;;4990110;28;20133;-76
2022/11/09 12:35:29;;;;;;;0.68;0.57;;;11.50;99.90;;;;;;4996566;28;20052;-74
2022/11/09 12:38:03;;;;;;;3.50;1.20;;;11.50;99.90;;;;;;4999115;28;20054;-75
2022/11/09 12:40:34;;;;;;;2.47;1.02;;;11.40;99.90;;;;;;4995832;28;20096;-75
2022/11/09 12:43:14;;;;;;;3.42;1.17;;;11.40;99.90;;;;;;4993283;28;20076;-74
2022/11/09 12:45:40;;;;;;;0.77;0.50;;;11.40;99.90;;;;;;4992613;28;20054;-76
2022/11/09 12:48:28;;;;;;;0.73;0.57;;;11.40;99.90;;;;;;5001766;28;20060;-75
2022/11/09 12:50:55;;;;;;;0.20;0.20;;;11.40;99.90;;;;;;4986964;28;20552;-75
2022/11/09 12:53:24;;;;;;;2.38;0.70;;;11.40;99.90;;;;;;4997350;28;20042;-74
2022/11/09 12:56:20;;;;;;;0.32;0.32;;;11.40;99.90;;;;;;4993390;28;20516;-76
2022/11/09 12:58:46;;;;;;;0.50;0.45;;;11.40;99.90;;;;;;4987862;28;20091;-75
2022/11/09 13:01:32;;;;;;;2.05;1.00;;;11.40;99.90;;;;;;4984057;28;20508;-76
2022/11/09 13:04:00;;;;;;;0.40;0.40;;;11.40;99.90;;;;;;4989625;28;20052;-74